sensor_id;sensor_type;location;lat;lon;timestamp;P1;durP1;ratioP1;P2;durP2;ratioP2
46216;SDS011;47258;59.424;13.482;2023-08-31T00:00:41;6.57;;;3.13;;
46216;SDS011;47258;59.424;13.482;2023-08-31T00:03:08;3.45;;;2.28;;
46216;SDS011;47258;59.424;13.482;2023-08-31T00:05:36;3.58;;;2.45;;
46216;SDS011;47258;59.424;13.482;2023-08-31T00:08:05;3.55;;;2.13;;
46216;SDS011;47258;59.424;13.482;2023-08-31T00:10:32;7.97;;;2.72;;
46216;SDS011;47258;59.424;13.482;2023-08-31T00:13:00;10.98;;;2.35;;
46216;SDS011;47258;59.424;13.482;2023-08-31T00:15:27;7.88;;;2.50;;
46216;SDS011;47258;59.424;13.482;2023-08-31T00:17:58;5.70;;;2.47;;
46216;SDS011;47258;59.424;13.482;2023-08-31T00:20:25;5.82;;;2.72;;
46216;SDS011;47258;59.424;13.482;2023-08-31T00:22:55;13.80;;;3.35;;
46216;SDS011;47258;59.424;13.482;2023-08-31T00:25:22;4.28;;;2.38;;
46216;SDS011;47258;59.424;13.482;2023-08-31T00:27:49;8.98;;;2.90;;
46216;SDS011;47258;59.424;13.482;2023-08-31T00:30:17;9.23;;;2.20;;
46216;SDS011;47258;59.424;13.482;2023-08-31T00:32:45;14.20;;;2.40;;
46216;SDS011;47258;59.424;13.482;2023-08-31T00:35:14;3.28;;;2.28;;
46216;SDS011;47258;59.424;13.482;2023-08-31T00:37:42;4.82;;;2.53;;
46216;SDS011;47258;59.424;13.482;2023-08-31T00:40:10;4.05;;;2.15;;
46216;SDS011;47258;59.424;13.482;2023-08-31T00:42:39;9.85;;;2.53;;
46216;SDS011;47258;59.424;13.482;2023-08-31T00:45:07;5.45;;;2.35;;
46216;SDS011;47258;59.424;13.482;2023-08-31T00:47:35;4.82;;;2.97;;
46216;SDS011;47258;59.424;13.482;2023-08-31T00:50:03;7.05;;;2.97;;
46216;SDS011;47258;59.424;13.482;2023-08-31T00:52:33;8.32;;;2.92;;
46216;SDS011;47258;59.424;13.482;2023-08-31T00:55:00;3.70;;;2.58;;
46216;SDS011;47258;59.424;13.482;2023-08-31T00:57:30;8.18;;;2.75;;
46216;SDS011;47258;59.424;13.482;2023-08-31T00:59:57;5.47;;;2.30;;
46216;SDS011;47258;59.424;13.482;2023-08-31T01:02:27;7.45;;;2.97;;
46216;SDS011;47258;59.424;13.482;2023-08-31T01:05:02;7.07;;;2.10;;
46216;SDS011;47258;59.424;13.482;2023-08-31T01:07:38;10.73;;;3.42;;
46216;SDS011;47258;59.424;13.482;2023-08-31T01:10:15;6.90;;;2.33;;
46216;SDS011;47258;59.424;13.482;2023-08-31T01:12:49;6.82;;;2.67;;
46216;SDS011;47258;59.424;13.482;2023-08-31T01:15:18;3.40;;;2.30;;
46216;SDS011;47258;59.424;13.482;2023-08-31T01:17:46;9.88;;;1.98;;
46216;SDS011;47258;59.424;13.482;2023-08-31T01:20:16;11.02;;;3.47;;
46216;SDS011;47258;59.424;13.482;2023-08-31T01:22:50;4.05;;;1.95;;
46216;SDS011;47258;59.424;13.482;2023-08-31T01:25:25;3.03;;;2.05;;
46216;SDS011;47258;59.424;13.482;2023-08-31T01:27:52;4.75;;;2.22;;
46216;SDS011;47258;59.424;13.482;2023-08-31T01:30:19;6.95;;;2.88;;
46216;SDS011;47258;59.424;13.482;2023-08-31T01:32:47;11.07;;;2.75;;
46216;SDS011;47258;59.424;13.482;2023-08-31T01:35:14;4.28;;;2.90;;
46216;SDS011;47258;59.424;13.482;2023-08-31T01:37:45;13.60;;;2.75;;
46216;SDS011;47258;59.424;13.482;2023-08-31T01:40:15;4.25;;;2.55;;
46216;SDS011;47258;59.424;13.482;2023-08-31T01:42:47;11.77;;;2.45;;
46216;SDS011;47258;59.424;13.482;2023-08-31T01:45:17;9.52;;;2.25;;
46216;SDS011;47258;59.424;13.482;2023-08-31T01:47:46;4.18;;;1.70;;
46216;SDS011;47258;59.424;13.482;2023-08-31T01:50:13;4.57;;;1.65;;
46216;SDS011;47258;59.424;13.482;2023-08-31T01:52:40;1.60;;;1.50;;
46216;SDS011;47258;59.424;13.482;2023-08-31T01:55:07;6.05;;;1.90;;
46216;SDS011;47258;59.424;13.482;2023-08-31T01:57:34;5.32;;;2.00;;
46216;SDS011;47258;59.424;13.482;2023-08-31T02:00:03;9.07;;;1.73;;
46216;SDS011;47258;59.424;13.482;2023-08-31T02:02:31;5.05;;;3.17;;
46216;SDS011;47258;59.424;13.482;2023-08-31T02:04:58;9.00;;;2.28;;
46216;SDS011;47258;59.424;13.482;2023-08-31T02:07:26;1.80;;;1.67;;
46216;SDS011;47258;59.424;13.482;2023-08-31T02:09:53;7.13;;;2.38;;
46216;SDS011;47258;59.424;13.482;2023-08-31T02:12:20;6.57;;;2.78;;
46216;SDS011;47258;59.424;13.482;2023-08-31T02:14:47;2.63;;;1.75;;
46216;SDS011;47258;59.424;13.482;2023-08-31T02:17:16;2.55;;;2.08;;
46216;SDS011;47258;59.424;13.482;2023-08-31T02:19:43;4.53;;;2.38;;
46216;SDS011;47258;59.424;13.482;2023-08-31T02:22:10;4.68;;;2.22;;
46216;SDS011;47258;59.424;13.482;2023-08-31T02:24:37;7.93;;;2.30;;
46216;SDS011;47258;59.424;13.482;2023-08-31T02:27:04;12.90;;;2.55;;
46216;SDS011;47258;59.424;13.482;2023-08-31T02:29:31;4.75;;;1.75;;
46216;SDS011;47258;59.424;13.482;2023-08-31T02:31:58;4.25;;;2.38;;
46216;SDS011;47258;59.424;13.482;2023-08-31T02:34:26;3.47;;;1.80;;
46216;SDS011;47258;59.424;13.482;2023-08-31T02:36:53;1.98;;;1.70;;
46216;SDS011;47258;59.424;13.482;2023-08-31T02:39:20;18.35;;;2.58;;
46216;SDS011;47258;59.424;13.482;2023-08-31T02:41:47;3.88;;;2.30;;
46216;SDS011;47258;59.424;13.482;2023-08-31T02:44:14;4.25;;;2.83;;
46216;SDS011;47258;59.424;13.482;2023-08-31T02:46:41;5.15;;;2.30;;
46216;SDS011;47258;59.424;13.482;2023-08-31T02:49:08;5.22;;;3.05;;
46216;SDS011;47258;59.424;13.482;2023-08-31T02:51:36;4.25;;;2.80;;
46216;SDS011;47258;59.424;13.482;2023-08-31T02:54:03;5.72;;;2.08;;
46216;SDS011;47258;59.424;13.482;2023-08-31T02:56:30;3.67;;;2.10;;
46216;SDS011;47258;59.424;13.482;2023-08-31T02:58:57;5.78;;;2.17;;
46216;SDS011;47258;59.424;13.482;2023-08-31T03:01:23;6.05;;;2.78;;
46216;SDS011;47258;59.424;13.482;2023-08-31T03:03:50;15.55;;;3.97;;
46216;SDS011;47258;59.424;13.482;2023-08-31T03:06:17;7.78;;;3.17;;
46216;SDS011;47258;59.424;13.482;2023-08-31T03:08:46;22.25;;;4.28;;
46216;SDS011;47258;59.424;13.482;2023-08-31T03:11:12;18.30;;;3.92;;
46216;SDS011;47258;59.424;13.482;2023-08-31T03:13:41;38.70;;;5.35;;
46216;SDS011;47258;59.424;13.482;2023-08-31T03:16:08;42.92;;;6.15;;
46216;SDS011;47258;59.424;13.482;2023-08-31T03:18:35;33.22;;;5.70;;
46216;SDS011;47258;59.424;13.482;2023-08-31T03:21:02;22.05;;;4.93;;
46216;SDS011;47258;59.424;13.482;2023-08-31T03:23:29;30.13;;;6.15;;
46216;SDS011;47258;59.424;13.482;2023-08-31T03:25:58;211.25;;;14.20;;
46216;SDS011;47258;59.424;13.482;2023-08-31T03:28:24;86.43;;;8.38;;
46216;SDS011;47258;59.424;13.482;2023-08-31T03:30:55;14.15;;;5.65;;
46216;SDS011;47258;59.424;13.482;2023-08-31T03:33:22;15.53;;;4.03;;
46216;SDS011;47258;59.424;13.482;2023-08-31T03:35:49;10.63;;;4.00;;
46216;SDS011;47258;59.424;13.482;2023-08-31T03:38:16;6.65;;;3.40;;
46216;SDS011;47258;59.424;13.482;2023-08-31T03:40:43;4.22;;;3.05;;
46216;SDS011;47258;59.424;13.482;2023-08-31T03:43:19;8.18;;;3.47;;
46216;SDS011;47258;59.424;13.482;2023-08-31T03:45:46;8.07;;;3.08;;
46216;SDS011;47258;59.424;13.482;2023-08-31T03:48:14;3.70;;;3.40;;
46216;SDS011;47258;59.424;13.482;2023-08-31T03:50:41;3.30;;;3.00;;
46216;SDS011;47258;59.424;13.482;2023-08-31T03:53:08;8.70;;;2.80;;
46216;SDS011;47258;59.424;13.482;2023-08-31T03:55:35;3.63;;;2.47;;
46216;SDS011;47258;59.424;13.482;2023-08-31T03:58:03;8.18;;;3.40;;
46216;SDS011;47258;59.424;13.482;2023-08-31T04:00:31;6.65;;;3.42;;
46216;SDS011;47258;59.424;13.482;2023-08-31T04:02:58;3.38;;;3.05;;
46216;SDS011;47258;59.424;13.482;2023-08-31T04:05:25;4.05;;;3.67;;
46216;SDS011;47258;59.424;13.482;2023-08-31T04:07:52;4.13;;;3.53;;
46216;SDS011;47258;59.424;13.482;2023-08-31T04:10:19;7.20;;;3.25;;
46216;SDS011;47258;59.424;13.482;2023-08-31T04:12:46;3.78;;;2.75;;
46216;SDS011;47258;59.424;13.482;2023-08-31T04:15:13;2.47;;;2.28;;
46216;SDS011;47258;59.424;13.482;2023-08-31T04:17:41;5.20;;;2.58;;
46216;SDS011;47258;59.424;13.482;2023-08-31T04:20:08;4.65;;;1.70;;
46216;SDS011;47258;59.424;13.482;2023-08-31T04:22:36;10.60;;;2.70;;
46216;SDS011;47258;59.424;13.482;2023-08-31T04:25:03;14.95;;;2.42;;
46216;SDS011;47258;59.424;13.482;2023-08-31T04:27:31;2.58;;;2.38;;
46216;SDS011;47258;59.424;13.482;2023-08-31T04:29:58;5.45;;;2.60;;
46216;SDS011;47258;59.424;13.482;2023-08-31T04:32:25;7.38;;;2.67;;
46216;SDS011;47258;59.424;13.482;2023-08-31T04:34:53;4.25;;;2.55;;
46216;SDS011;47258;59.424;13.482;2023-08-31T04:37:20;5.25;;;2.33;;
46216;SDS011;47258;59.424;13.482;2023-08-31T04:39:47;2.53;;;2.25;;
46216;SDS011;47258;59.424;13.482;2023-08-31T04:42:14;5.68;;;3.00;;
46216;SDS011;47258;59.424;13.482;2023-08-31T04:44:42;5.72;;;2.20;;
46216;SDS011;47258;59.424;13.482;2023-08-31T04:47:09;5.07;;;2.58;;
46216;SDS011;47258;59.424;13.482;2023-08-31T04:49:36;4.43;;;2.55;;
46216;SDS011;47258;59.424;13.482;2023-08-31T04:52:05;3.33;;;2.40;;
46216;SDS011;47258;59.424;13.482;2023-08-31T04:54:32;2.63;;;2.42;;
46216;SDS011;47258;59.424;13.482;2023-08-31T04:56:59;26.20;;;3.58;;
46216;SDS011;47258;59.424;13.482;2023-08-31T04:59:26;10.10;;;3.75;;
46216;SDS011;47258;59.424;13.482;2023-08-31T05:01:53;7.85;;;3.88;;
46216;SDS011;47258;59.424;13.482;2023-08-31T05:04:20;23.80;;;4.75;;
46216;SDS011;47258;59.424;13.482;2023-08-31T05:06:48;13.85;;;3.78;;
46216;SDS011;47258;59.424;13.482;2023-08-31T05:09:16;14.77;;;4.60;;
46216;SDS011;47258;59.424;13.482;2023-08-31T05:11:44;31.77;;;4.35;;
46216;SDS011;47258;59.424;13.482;2023-08-31T05:14:11;41.58;;;6.03;;
46216;SDS011;47258;59.424;13.482;2023-08-31T05:16:38;30.17;;;6.18;;
46216;SDS011;47258;59.424;13.482;2023-08-31T05:19:04;38.20;;;6.28;;
46216;SDS011;47258;59.424;13.482;2023-08-31T05:21:31;26.98;;;5.63;;
46216;SDS011;47258;59.424;13.482;2023-08-31T05:23:58;24.80;;;5.10;;
46216;SDS011;47258;59.424;13.482;2023-08-31T05:26:26;9.43;;;5.20;;
46216;SDS011;47258;59.424;13.482;2023-08-31T05:28:53;13.35;;;4.50;;
46216;SDS011;47258;59.424;13.482;2023-08-31T05:31:20;6.55;;;4.65;;
46216;SDS011;47258;59.424;13.482;2023-08-31T05:33:47;6.45;;;4.15;;
46216;SDS011;47258;59.424;13.482;2023-08-31T05:36:14;13.70;;;4.88;;
46216;SDS011;47258;59.424;13.482;2023-08-31T05:38:41;6.25;;;3.92;;
46216;SDS011;47258;59.424;13.482;2023-08-31T05:41:08;8.95;;;3.55;;
46216;SDS011;47258;59.424;13.482;2023-08-31T05:43:37;8.85;;;3.00;;
46216;SDS011;47258;59.424;13.482;2023-08-31T05:46:05;4.57;;;3.22;;
46216;SDS011;47258;59.424;13.482;2023-08-31T05:48:32;8.32;;;3.65;;
46216;SDS011;47258;59.424;13.482;2023-08-31T05:50:59;11.38;;;2.95;;
46216;SDS011;47258;59.424;13.482;2023-08-31T05:53:26;6.07;;;3.22;;
46216;SDS011;47258;59.424;13.482;2023-08-31T05:55:54;6.63;;;2.78;;
46216;SDS011;47258;59.424;13.482;2023-08-31T05:58:28;8.07;;;4.05;;
46216;SDS011;47258;59.424;13.482;2023-08-31T06:00:56;3.10;;;2.78;;
46216;SDS011;47258;59.424;13.482;2023-08-31T06:03:23;5.05;;;3.50;;
46216;SDS011;47258;59.424;13.482;2023-08-31T06:05:50;12.00;;;3.35;;
46216;SDS011;47258;59.424;13.482;2023-08-31T06:08:17;8.85;;;3.20;;
46216;SDS011;47258;59.424;13.482;2023-08-31T06:10:44;7.78;;;3.50;;
46216;SDS011;47258;59.424;13.482;2023-08-31T06:13:11;8.18;;;3.35;;
46216;SDS011;47258;59.424;13.482;2023-08-31T06:15:38;6.32;;;2.65;;
46216;SDS011;47258;59.424;13.482;2023-08-31T06:18:06;3.15;;;2.95;;
46216;SDS011;47258;59.424;13.482;2023-08-31T06:20:33;6.85;;;2.83;;
46216;SDS011;47258;59.424;13.482;2023-08-31T06:23:00;2.60;;;2.38;;
46216;SDS011;47258;59.424;13.482;2023-08-31T06:25:27;2.45;;;2.28;;
46216;SDS011;47258;59.424;13.482;2023-08-31T06:27:54;9.00;;;3.38;;
46216;SDS011;47258;59.424;13.482;2023-08-31T06:30:21;4.78;;;2.40;;
46216;SDS011;47258;59.424;13.482;2023-08-31T06:32:48;2.28;;;2.10;;
46216;SDS011;47258;59.424;13.482;2023-08-31T06:35:17;5.93;;;2.50;;
46216;SDS011;47258;59.424;13.482;2023-08-31T06:37:44;2.47;;;2.22;;
46216;SDS011;47258;59.424;13.482;2023-08-31T06:40:11;2.50;;;2.08;;
46216;SDS011;47258;59.424;13.482;2023-08-31T06:42:39;3.97;;;2.28;;
46216;SDS011;47258;59.424;13.482;2023-08-31T06:45:06;3.28;;;2.53;;
46216;SDS011;47258;59.424;13.482;2023-08-31T06:47:34;2.55;;;2.28;;
46216;SDS011;47258;59.424;13.482;2023-08-31T06:50:01;4.90;;;2.38;;
46216;SDS011;47258;59.424;13.482;2023-08-31T06:52:30;8.13;;;2.42;;
46216;SDS011;47258;59.424;13.482;2023-08-31T06:54:57;5.22;;;2.75;;
46216;SDS011;47258;59.424;13.482;2023-08-31T06:57:24;5.35;;;2.97;;
46216;SDS011;47258;59.424;13.482;2023-08-31T06:59:51;3.50;;;3.17;;
46216;SDS011;47258;59.424;13.482;2023-08-31T07:02:18;10.98;;;2.78;;
46216;SDS011;47258;59.424;13.482;2023-08-31T07:04:47;6.05;;;2.88;;
46216;SDS011;47258;59.424;13.482;2023-08-31T07:07:14;7.38;;;2.45;;
46216;SDS011;47258;59.424;13.482;2023-08-31T07:09:43;6.32;;;2.70;;
46216;SDS011;47258;59.424;13.482;2023-08-31T07:12:13;4.38;;;2.40;;
46216;SDS011;47258;59.424;13.482;2023-08-31T07:14:40;3.58;;;2.38;;
46216;SDS011;47258;59.424;13.482;2023-08-31T07:17:07;3.80;;;2.40;;
46216;SDS011;47258;59.424;13.482;2023-08-31T07:19:35;4.90;;;2.28;;
46216;SDS011;47258;59.424;13.482;2023-08-31T07:22:03;5.37;;;2.77;;
46216;SDS011;47258;59.424;13.482;2023-08-31T07:24:31;2.35;;;2.22;;
46216;SDS011;47258;59.424;13.482;2023-08-31T07:27:01;5.00;;;2.17;;
46216;SDS011;47258;59.424;13.482;2023-08-31T07:29:28;4.13;;;2.33;;
46216;SDS011;47258;59.424;13.482;2023-08-31T07:31:55;5.13;;;2.35;;
46216;SDS011;47258;59.424;13.482;2023-08-31T07:34:22;2.20;;;2.05;;
46216;SDS011;47258;59.424;13.482;2023-08-31T07:36:50;5.05;;;2.40;;
46216;SDS011;47258;59.424;13.482;2023-08-31T07:39:17;4.50;;;2.28;;
46216;SDS011;47258;59.424;13.482;2023-08-31T07:41:43;2.65;;;2.00;;
46216;SDS011;47258;59.424;13.482;2023-08-31T07:44:12;3.42;;;1.80;;
46216;SDS011;47258;59.424;13.482;2023-08-31T07:46:39;3.75;;;1.75;;
46216;SDS011;47258;59.424;13.482;2023-08-31T07:49:06;1.80;;;1.70;;
46216;SDS011;47258;59.424;13.482;2023-08-31T07:51:32;7.47;;;2.30;;
46216;SDS011;47258;59.424;13.482;2023-08-31T07:53:59;3.58;;;2.42;;
46216;SDS011;47258;59.424;13.482;2023-08-31T07:56:28;2.38;;;1.98;;
46216;SDS011;47258;59.424;13.482;2023-08-31T07:58:55;5.65;;;1.83;;
46216;SDS011;47258;59.424;13.482;2023-08-31T08:01:23;4.95;;;2.25;;
46216;SDS011;47258;59.424;13.482;2023-08-31T08:03:50;3.85;;;2.45;;
46216;SDS011;47258;59.424;13.482;2023-08-31T08:06:17;4.07;;;1.92;;
46216;SDS011;47258;59.424;13.482;2023-08-31T08:08:44;4.80;;;1.80;;
46216;SDS011;47258;59.424;13.482;2023-08-31T08:11:11;6.13;;;1.83;;
46216;SDS011;47258;59.424;13.482;2023-08-31T08:13:38;4.00;;;1.85;;
46216;SDS011;47258;59.424;13.482;2023-08-31T08:16:04;1.58;;;1.30;;
46216;SDS011;47258;59.424;13.482;2023-08-31T08:18:34;1.95;;;1.33;;
46216;SDS011;47258;59.424;13.482;2023-08-31T08:21:01;2.42;;;1.50;;
46216;SDS011;47258;59.424;13.482;2023-08-31T08:23:28;3.85;;;1.77;;
46216;SDS011;47258;59.424;13.482;2023-08-31T08:25:55;3.22;;;1.42;;
46216;SDS011;47258;59.424;13.482;2023-08-31T08:28:24;3.85;;;1.75;;
46216;SDS011;47258;59.424;13.482;2023-08-31T08:30:51;3.50;;;1.52;;
46216;SDS011;47258;59.424;13.482;2023-08-31T08:33:18;1.30;;;1.10;;
46216;SDS011;47258;59.424;13.482;2023-08-31T08:35:46;3.30;;;1.17;;
46216;SDS011;47258;59.424;13.482;2023-08-31T08:38:13;3.20;;;1.98;;
46216;SDS011;47258;59.424;13.482;2023-08-31T08:40:40;3.20;;;1.67;;
46216;SDS011;47258;59.424;13.482;2023-08-31T08:43:07;3.33;;;1.83;;
46216;SDS011;47258;59.424;13.482;2023-08-31T08:45:35;6.15;;;1.92;;
46216;SDS011;47258;59.424;13.482;2023-08-31T08:48:06;1.13;;;1.13;;
46216;SDS011;47258;59.424;13.482;2023-08-31T08:50:34;2.83;;;1.45;;
46216;SDS011;47258;59.424;13.482;2023-08-31T08:53:05;1.58;;;1.27;;
46216;SDS011;47258;59.424;13.482;2023-08-31T08:55:32;2.78;;;1.40;;
46216;SDS011;47258;59.424;13.482;2023-08-31T08:57:59;1.45;;;1.35;;
46216;SDS011;47258;59.424;13.482;2023-08-31T09:00:26;1.98;;;1.73;;
46216;SDS011;47258;59.424;13.482;2023-08-31T09:02:53;2.70;;;1.10;;
46216;SDS011;47258;59.424;13.482;2023-08-31T09:05:21;3.67;;;1.30;;
46216;SDS011;47258;59.424;13.482;2023-08-31T09:08:01;2.45;;;1.58;;
46216;SDS011;47258;59.424;13.482;2023-08-31T09:10:36;2.72;;;1.50;;
46216;SDS011;47258;59.424;13.482;2023-08-31T09:13:05;5.00;;;1.25;;
46216;SDS011;47258;59.424;13.482;2023-08-31T09:15:40;1.17;;;1.10;;
46216;SDS011;47258;59.424;13.482;2023-08-31T09:18:08;1.88;;;1.70;;
46216;SDS011;47258;59.424;13.482;2023-08-31T09:20:43;2.30;;;1.55;;
46216;SDS011;47258;59.424;13.482;2023-08-31T09:23:10;1.92;;;1.17;;
46216;SDS011;47258;59.424;13.482;2023-08-31T09:25:41;2.70;;;1.65;;
46216;SDS011;47258;59.424;13.482;2023-08-31T09:28:09;2.50;;;1.17;;
46216;SDS011;47258;59.424;13.482;2023-08-31T09:30:37;6.18;;;2.15;;
46216;SDS011;47258;59.424;13.482;2023-08-31T09:33:05;2.42;;;1.40;;
46216;SDS011;47258;59.424;13.482;2023-08-31T09:35:34;1.38;;;1.10;;
46216;SDS011;47258;59.424;13.482;2023-08-31T09:38:06;3.80;;;1.05;;
46216;SDS011;47258;59.424;13.482;2023-08-31T09:43:02;3.40;;;0.60;;
46216;SDS011;47258;59.424;13.482;2023-08-31T09:45:30;2.40;;;1.03;;
46216;SDS011;47258;59.424;13.482;2023-08-31T09:47:58;7.78;;;0.90;;
46216;SDS011;47258;59.424;13.482;2023-08-31T09:50:26;2.95;;;1.17;;
46216;SDS011;47258;59.424;13.482;2023-08-31T09:52:56;3.92;;;1.40;;
46216;SDS011;47258;59.424;13.482;2023-08-31T09:55:27;2.25;;;1.00;;
46216;SDS011;47258;59.424;13.482;2023-08-31T09:57:55;1.92;;;0.90;;
46216;SDS011;47258;59.424;13.482;2023-08-31T10:00:25;2.88;;;0.93;;
46216;SDS011;47258;59.424;13.482;2023-08-31T10:02:53;3.38;;;0.80;;
46216;SDS011;47258;59.424;13.482;2023-08-31T10:05:22;1.63;;;0.88;;
46216;SDS011;47258;59.424;13.482;2023-08-31T10:07:50;1.30;;;0.93;;
46216;SDS011;47258;59.424;13.482;2023-08-31T10:10:17;1.33;;;1.13;;
46216;SDS011;47258;59.424;13.482;2023-08-31T10:12:45;4.80;;;1.20;;
46216;SDS011;47258;59.424;13.482;2023-08-31T10:15:15;3.42;;;1.10;;
46216;SDS011;47258;59.424;13.482;2023-08-31T10:17:43;2.03;;;1.10;;
46216;SDS011;47258;59.424;13.482;2023-08-31T10:20:11;2.33;;;1.47;;
46216;SDS011;47258;59.424;13.482;2023-08-31T10:22:40;0.95;;;0.80;;
46216;SDS011;47258;59.424;13.482;2023-08-31T10:25:08;2.38;;;1.60;;
46216;SDS011;47258;59.424;13.482;2023-08-31T10:27:37;3.10;;;1.35;;
46216;SDS011;47258;59.424;13.482;2023-08-31T10:30:15;3.92;;;1.38;;
46216;SDS011;47258;59.424;13.482;2023-08-31T10:33:03;4.40;;;1.08;;
46216;SDS011;47258;59.424;13.482;2023-08-31T10:35:50;2.35;;;0.85;;
46216;SDS011;47258;59.424;13.482;2023-08-31T10:38:25;1.77;;;0.90;;
46216;SDS011;47258;59.424;13.482;2023-08-31T10:41:03;4.07;;;1.23;;
46216;SDS011;47258;59.424;13.482;2023-08-31T10:43:47;2.90;;;1.00;;
46216;SDS011;47258;59.424;13.482;2023-08-31T10:46:26;2.42;;;1.13;;
46216;SDS011;47258;59.424;13.482;2023-08-31T10:48:56;1.88;;;1.13;;
46216;SDS011;47258;59.424;13.482;2023-08-31T10:54:04;1.38;;;1.05;;
46216;SDS011;47258;59.424;13.482;2023-08-31T10:56:32;4.45;;;1.10;;
46216;SDS011;47258;59.424;13.482;2023-08-31T10:58:59;3.58;;;1.08;;
46216;SDS011;47258;59.424;13.482;2023-08-31T11:04:25;1.80;;;1.33;;
46216;SDS011;47258;59.424;13.482;2023-08-31T11:07:11;1.10;;;1.08;;
46216;SDS011;47258;59.424;13.482;2023-08-31T11:09:39;2.83;;;1.10;;
46216;SDS011;47258;59.424;13.482;2023-08-31T11:12:07;0.80;;;0.80;;
46216;SDS011;47258;59.424;13.482;2023-08-31T11:14:35;1.02;;;0.90;;
46216;SDS011;47258;59.424;13.482;2023-08-31T11:17:02;3.58;;;1.30;;
46216;SDS011;47258;59.424;13.482;2023-08-31T11:19:32;0.80;;;0.80;;
46216;SDS011;47258;59.424;13.482;2023-08-31T11:21:59;1.90;;;0.83;;
46216;SDS011;47258;59.424;13.482;2023-08-31T11:24:28;3.75;;;1.48;;
46216;SDS011;47258;59.424;13.482;2023-08-31T11:26:55;3.45;;;0.90;;
46216;SDS011;47258;59.424;13.482;2023-08-31T11:29:22;2.40;;;1.05;;
46216;SDS011;47258;59.424;13.482;2023-08-31T11:31:49;2.20;;;1.38;;
46216;SDS011;47258;59.424;13.482;2023-08-31T11:34:16;1.83;;;1.02;;
46216;SDS011;47258;59.424;13.482;2023-08-31T11:36:46;0.77;;;0.77;;
46216;SDS011;47258;59.424;13.482;2023-08-31T11:39:13;2.00;;;0.70;;
46216;SDS011;47258;59.424;13.482;2023-08-31T11:41:41;1.20;;;0.93;;
46216;SDS011;47258;59.424;13.482;2023-08-31T11:44:09;0.95;;;0.85;;
46216;SDS011;47258;59.424;13.482;2023-08-31T11:46:37;0.98;;;0.90;;
46216;SDS011;47258;59.424;13.482;2023-08-31T11:49:05;0.83;;;0.60;;
46216;SDS011;47258;59.424;13.482;2023-08-31T11:51:33;2.65;;;0.75;;
46216;SDS011;47258;59.424;13.482;2023-08-31T11:54:02;4.07;;;1.33;;
46216;SDS011;47258;59.424;13.482;2023-08-31T11:56:38;5.68;;;1.23;;
46216;SDS011;47258;59.424;13.482;2023-08-31T11:59:07;2.88;;;0.98;;
46216;SDS011;47258;59.424;13.482;2023-08-31T12:01:38;3.13;;;0.93;;
46216;SDS011;47258;59.424;13.482;2023-08-31T12:04:09;1.33;;;0.80;;
46216;SDS011;47258;59.424;13.482;2023-08-31T12:06:37;1.48;;;0.60;;
46216;SDS011;47258;59.424;13.482;2023-08-31T12:09:07;3.15;;;1.30;;
46216;SDS011;47258;59.424;13.482;2023-08-31T12:11:35;4.13;;;1.35;;
46216;SDS011;47258;59.424;13.482;2023-08-31T12:14:02;3.83;;;0.77;;
46216;SDS011;47258;59.424;13.482;2023-08-31T12:16:33;1.73;;;1.25;;
46216;SDS011;47258;59.424;13.482;2023-08-31T12:19:04;2.15;;;1.00;;
46216;SDS011;47258;59.424;13.482;2023-08-31T12:21:31;0.63;;;0.63;;
46216;SDS011;47258;59.424;13.482;2023-08-31T12:23:58;1.15;;;1.05;;
46216;SDS011;47258;59.424;13.482;2023-08-31T12:26:27;1.83;;;0.85;;
46216;SDS011;47258;59.424;13.482;2023-08-31T12:28:54;2.97;;;1.23;;
46216;SDS011;47258;59.424;13.482;2023-08-31T12:31:22;1.02;;;1.02;;
46216;SDS011;47258;59.424;13.482;2023-08-31T12:33:49;1.10;;;1.00;;
46216;SDS011;47258;59.424;13.482;2023-08-31T12:36:16;3.78;;;1.33;;
46216;SDS011;47258;59.424;13.482;2023-08-31T12:38:43;4.25;;;1.48;;
46216;SDS011;47258;59.424;13.482;2023-08-31T12:41:10;3.28;;;1.52;;
46216;SDS011;47258;59.424;13.482;2023-08-31T12:43:38;4.13;;;1.00;;
46216;SDS011;47258;59.424;13.482;2023-08-31T12:46:05;4.43;;;0.80;;
46216;SDS011;47258;59.424;13.482;2023-08-31T12:48:34;1.73;;;0.77;;
46216;SDS011;47258;59.424;13.482;2023-08-31T12:51:01;2.20;;;0.88;;
46216;SDS011;47258;59.424;13.482;2023-08-31T12:53:28;3.78;;;0.90;;
46216;SDS011;47258;59.424;13.482;2023-08-31T12:55:55;3.42;;;1.02;;
46216;SDS011;47258;59.424;13.482;2023-08-31T12:58:22;7.20;;;1.10;;
46216;SDS011;47258;59.424;13.482;2023-08-31T13:00:50;3.20;;;1.10;;
46216;SDS011;47258;59.424;13.482;2023-08-31T13:03:18;5.95;;;1.25;;
46216;SDS011;47258;59.424;13.482;2023-08-31T13:05:45;8.90;;;1.00;;
46216;SDS011;47258;59.424;13.482;2023-08-31T13:08:14;3.15;;;0.82;;
46216;SDS011;47258;59.424;13.482;2023-08-31T13:10:40;3.38;;;0.88;;
46216;SDS011;47258;59.424;13.482;2023-08-31T13:13:07;1.92;;;0.98;;
46216;SDS011;47258;59.424;13.482;2023-08-31T13:15:34;1.02;;;0.90;;
46216;SDS011;47258;59.424;13.482;2023-08-31T13:18:03;4.68;;;0.93;;
46216;SDS011;47258;59.424;13.482;2023-08-31T13:20:30;1.23;;;1.05;;
46216;SDS011;47258;59.424;13.482;2023-08-31T13:22:57;3.92;;;1.15;;
46216;SDS011;47258;59.424;13.482;2023-08-31T13:25:24;2.10;;;1.00;;
46216;SDS011;47258;59.424;13.482;2023-08-31T13:27:51;3.70;;;1.08;;
46216;SDS011;47258;59.424;13.482;2023-08-31T13:30:18;1.73;;;1.13;;
46216;SDS011;47258;59.424;13.482;2023-08-31T13:32:45;0.75;;;0.73;;
46216;SDS011;47258;59.424;13.482;2023-08-31T13:35:13;1.67;;;0.95;;
46216;SDS011;47258;59.424;13.482;2023-08-31T13:37:40;0.73;;;0.73;;
46216;SDS011;47258;59.424;13.482;2023-08-31T13:40:08;1.10;;;0.85;;
46216;SDS011;47258;59.424;13.482;2023-08-31T13:42:35;5.38;;;1.45;;
46216;SDS011;47258;59.424;13.482;2023-08-31T13:45:04;1.27;;;0.90;;
46216;SDS011;47258;59.424;13.482;2023-08-31T13:49:59;1.35;;;1.08;;
46216;SDS011;47258;59.424;13.482;2023-08-31T13:52:27;3.17;;;1.55;;
46216;SDS011;47258;59.424;13.482;2023-08-31T13:54:54;1.30;;;0.98;;
46216;SDS011;47258;59.424;13.482;2023-08-31T13:57:21;2.22;;;0.88;;
46216;SDS011;47258;59.424;13.482;2023-08-31T13:59:48;1.58;;;1.00;;
46216;SDS011;47258;59.424;13.482;2023-08-31T14:02:15;1.17;;;0.85;;
46216;SDS011;47258;59.424;13.482;2023-08-31T14:04:42;1.38;;;0.80;;
46216;SDS011;47258;59.424;13.482;2023-08-31T14:07:09;0.90;;;0.90;;
46216;SDS011;47258;59.424;13.482;2023-08-31T14:09:37;2.50;;;0.50;;
46216;SDS011;47258;59.424;13.482;2023-08-31T14:12:05;0.77;;;0.70;;
46216;SDS011;47258;59.424;13.482;2023-08-31T14:14:32;0.70;;;0.70;;
46216;SDS011;47258;59.424;13.482;2023-08-31T14:16:59;0.93;;;0.75;;
46216;SDS011;47258;59.424;13.482;2023-08-31T14:19:26;1.98;;;0.80;;
46216;SDS011;47258;59.424;13.482;2023-08-31T14:21:53;0.95;;;0.90;;
46216;SDS011;47258;59.424;13.482;2023-08-31T14:24:20;0.90;;;0.90;;
46216;SDS011;47258;59.424;13.482;2023-08-31T14:26:49;1.17;;;0.88;;
46216;SDS011;47258;59.424;13.482;2023-08-31T14:29:16;1.33;;;1.23;;
46216;SDS011;47258;59.424;13.482;2023-08-31T14:31:43;2.17;;;1.10;;
46216;SDS011;47258;59.424;13.482;2023-08-31T14:34:10;1.98;;;1.05;;
46216;SDS011;47258;59.424;13.482;2023-08-31T14:36:37;3.55;;;1.45;;
46216;SDS011;47258;59.424;13.482;2023-08-31T14:39:04;4.72;;;1.20;;
46216;SDS011;47258;59.424;13.482;2023-08-31T14:41:31;4.57;;;1.17;;
46216;SDS011;47258;59.424;13.482;2023-08-31T14:43:59;3.05;;;1.08;;
46216;SDS011;47258;59.424;13.482;2023-08-31T14:46:26;1.15;;;0.82;;
46216;SDS011;47258;59.424;13.482;2023-08-31T14:48:53;0.80;;;0.80;;